sensor_id;sensor_type;location;lat;lon;timestamp;P1;durP1;ratioP1;P2;durP2;ratioP2
54831;SDS011;40730;53.068;6.572;2023-05-27T00:01:45;3.88;;;0.85;;
54831;SDS011;40730;53.068;6.572;2023-05-27T00:04:11;7.03;;;1.40;;
54831;SDS011;40730;53.068;6.572;2023-05-27T00:06:37;9.65;;;1.77;;
54831;SDS011;40730;53.068;6.572;2023-05-27T00:09:02;16.55;;;2.53;;
54831;SDS011;40730;53.068;6.572;2023-05-27T00:11:28;11.80;;;2.28;;
54831;SDS011;40730;53.068;6.572;2023-05-27T00:13:53;14.70;;;2.63;;
54831;SDS011;40730;53.068;6.572;2023-05-27T00:16:19;10.27;;;2.42;;
54831;SDS011;40730;53.068;6.572;2023-05-27T00:18:46;11.55;;;2.40;;
54831;SDS011;40730;53.068;6.572;2023-05-27T00:21:13;7.13;;;3.20;;
54831;SDS011;40730;53.068;6.572;2023-05-27T00:23:39;5.55;;;1.40;;
54831;SDS011;40730;53.068;6.572;2023-05-27T00:26:04;11.77;;;2.40;;
54831;SDS011;40730;53.068;6.572;2023-05-27T00:28:30;4.57;;;0.98;;
54831;SDS011;40730;53.068;6.572;2023-05-27T00:30:57;4.05;;;1.10;;
54831;SDS011;40730;53.068;6.572;2023-05-27T00:33:22;8.68;;;1.23;;
54831;SDS011;40730;53.068;6.572;2023-05-27T00:35:48;5.18;;;0.98;;
54831;SDS011;40730;53.068;6.572;2023-05-27T00:38:14;5.68;;;1.83;;
54831;SDS011;40730;53.068;6.572;2023-05-27T00:40:40;18.67;;;4.10;;
54831;SDS011;40730;53.068;6.572;2023-05-27T00:43:06;7.05;;;2.60;;
54831;SDS011;40730;53.068;6.572;2023-05-27T00:45:31;9.82;;;2.45;;
54831;SDS011;40730;53.068;6.572;2023-05-27T00:47:57;11.75;;;3.13;;
54831;SDS011;40730;53.068;6.572;2023-05-27T00:50:26;10.32;;;2.58;;
54831;SDS011;40730;53.068;6.572;2023-05-27T00:52:52;11.13;;;1.90;;
54831;SDS011;40730;53.068;6.572;2023-05-27T00:55:20;7.07;;;1.85;;
54831;SDS011;40730;53.068;6.572;2023-05-27T00:57:46;10.30;;;2.45;;
54831;SDS011;40730;53.068;6.572;2023-05-27T01:00:12;7.30;;;2.30;;
54831;SDS011;40730;53.068;6.572;2023-05-27T01:02:38;7.95;;;2.08;;
54831;SDS011;40730;53.068;6.572;2023-05-27T01:05:08;9.15;;;2.60;;
54831;SDS011;40730;53.068;6.572;2023-05-27T01:10:23;16.88;;;3.47;;
54831;SDS011;40730;53.068;6.572;2023-05-27T01:13:01;7.90;;;2.75;;
54831;SDS011;40730;53.068;6.572;2023-05-27T01:15:31;6.65;;;2.50;;
54831;SDS011;40730;53.068;6.572;2023-05-27T01:17:59;7.70;;;1.95;;
54831;SDS011;40730;53.068;6.572;2023-05-27T01:20:28;7.50;;;1.95;;
54831;SDS011;40730;53.068;6.572;2023-05-27T01:22:55;4.47;;;0.70;;
54831;SDS011;40730;53.068;6.572;2023-05-27T01:25:22;2.42;;;0.50;;
54831;SDS011;40730;53.068;6.572;2023-05-27T01:27:48;6.45;;;1.20;;
54831;SDS011;40730;53.068;6.572;2023-05-27T01:30:15;9.25;;;2.95;;
54831;SDS011;40730;53.068;6.572;2023-05-27T01:32:46;4.65;;;1.30;;
54831;SDS011;40730;53.068;6.572;2023-05-27T01:38:09;18.67;;;3.45;;
54831;SDS011;40730;53.068;6.572;2023-05-27T01:40:38;17.52;;;4.05;;
54831;SDS011;40730;53.068;6.572;2023-05-27T01:43:05;6.30;;;2.30;;
54831;SDS011;40730;53.068;6.572;2023-05-27T01:45:32;11.40;;;3.80;;
54831;SDS011;40730;53.068;6.572;2023-05-27T01:47:58;9.60;;;2.95;;
54831;SDS011;40730;53.068;6.572;2023-05-27T01:50:24;10.70;;;3.60;;
54831;SDS011;40730;53.068;6.572;2023-05-27T01:52:49;9.07;;;2.90;;
54831;SDS011;40730;53.068;6.572;2023-05-27T01:55:15;22.63;;;4.10;;
54831;SDS011;40730;53.068;6.572;2023-05-27T01:57:42;25.58;;;4.97;;
54831;SDS011;40730;53.068;6.572;2023-05-27T02:00:08;44.22;;;5.20;;
54831;SDS011;40730;53.068;6.572;2023-05-27T02:02:34;16.02;;;4.20;;
54831;SDS011;40730;53.068;6.572;2023-05-27T02:05:00;10.52;;;3.35;;
54831;SDS011;40730;53.068;6.572;2023-05-27T02:07:25;15.77;;;4.57;;
54831;SDS011;40730;53.068;6.572;2023-05-27T02:09:53;13.43;;;4.60;;
54831;SDS011;40730;53.068;6.572;2023-05-27T02:12:18;14.73;;;3.92;;
54831;SDS011;40730;53.068;6.572;2023-05-27T02:14:45;17.92;;;4.10;;
54831;SDS011;40730;53.068;6.572;2023-05-27T02:17:11;12.23;;;4.25;;
54831;SDS011;40730;53.068;6.572;2023-05-27T02:19:39;19.02;;;5.40;;
54831;SDS011;40730;53.068;6.572;2023-05-27T02:22:05;13.68;;;4.30;;
54831;SDS011;40730;53.068;6.572;2023-05-27T02:24:31;9.27;;;3.30;;
54831;SDS011;40730;53.068;6.572;2023-05-27T02:26:56;14.45;;;3.88;;
54831;SDS011;40730;53.068;6.572;2023-05-27T02:29:22;9.55;;;3.20;;
54831;SDS011;40730;53.068;6.572;2023-05-27T02:31:47;7.68;;;2.63;;
54831;SDS011;40730;53.068;6.572;2023-05-27T02:34:13;18.27;;;3.08;;
54831;SDS011;40730;53.068;6.572;2023-05-27T02:36:39;13.23;;;3.47;;
54831;SDS011;40730;53.068;6.572;2023-05-27T02:39:04;8.57;;;2.22;;
54831;SDS011;40730;53.068;6.572;2023-05-27T02:41:30;9.85;;;2.70;;
54831;SDS011;40730;53.068;6.572;2023-05-27T02:43:56;8.60;;;3.47;;
54831;SDS011;40730;53.068;6.572;2023-05-27T02:46:21;11.90;;;4.07;;
54831;SDS011;40730;53.068;6.572;2023-05-27T02:48:47;15.95;;;4.22;;
54831;SDS011;40730;53.068;6.572;2023-05-27T02:51:12;13.93;;;4.75;;
54831;SDS011;40730;53.068;6.572;2023-05-27T02:53:38;15.32;;;3.65;;
54831;SDS011;40730;53.068;6.572;2023-05-27T02:56:04;12.60;;;4.03;;
54831;SDS011;40730;53.068;6.572;2023-05-27T02:58:30;13.45;;;3.83;;
54831;SDS011;40730;53.068;6.572;2023-05-27T03:00:55;13.95;;;3.78;;
54831;SDS011;40730;53.068;6.572;2023-05-27T03:03:21;16.05;;;4.47;;
54831;SDS011;40730;53.068;6.572;2023-05-27T03:05:48;15.90;;;4.00;;
54831;SDS011;40730;53.068;6.572;2023-05-27T03:08:14;16.58;;;3.75;;
54831;SDS011;40730;53.068;6.572;2023-05-27T03:10:40;16.63;;;3.85;;
54831;SDS011;40730;53.068;6.572;2023-05-27T03:13:06;17.13;;;4.50;;
54831;SDS011;40730;53.068;6.572;2023-05-27T03:15:31;15.68;;;4.13;;
54831;SDS011;40730;53.068;6.572;2023-05-27T03:17:57;18.50;;;5.00;;
54831;SDS011;40730;53.068;6.572;2023-05-27T03:20:23;20.95;;;4.72;;
54831;SDS011;40730;53.068;6.572;2023-05-27T03:22:49;11.35;;;4.40;;
54831;SDS011;40730;53.068;6.572;2023-05-27T03:25:15;13.27;;;3.72;;
54831;SDS011;40730;53.068;6.572;2023-05-27T03:27:40;17.70;;;3.83;;
54831;SDS011;40730;53.068;6.572;2023-05-27T03:30:06;14.35;;;4.47;;
54831;SDS011;40730;53.068;6.572;2023-05-27T03:32:32;15.93;;;3.30;;
54831;SDS011;40730;53.068;6.572;2023-05-27T03:34:58;12.27;;;3.22;;
54831;SDS011;40730;53.068;6.572;2023-05-27T03:37:25;12.45;;;3.33;;
54831;SDS011;40730;53.068;6.572;2023-05-27T03:39:50;14.82;;;4.78;;
54831;SDS011;40730;53.068;6.572;2023-05-27T03:42:17;19.13;;;4.53;;
54831;SDS011;40730;53.068;6.572;2023-05-27T03:44:43;15.68;;;4.63;;
54831;SDS011;40730;53.068;6.572;2023-05-27T03:47:08;17.70;;;4.28;;
54831;SDS011;40730;53.068;6.572;2023-05-27T03:49:34;14.88;;;4.60;;
54831;SDS011;40730;53.068;6.572;2023-05-27T03:52:00;21.98;;;4.28;;
54831;SDS011;40730;53.068;6.572;2023-05-27T03:54:25;25.40;;;5.55;;
54831;SDS011;40730;53.068;6.572;2023-05-27T03:56:51;21.15;;;5.15;;
54831;SDS011;40730;53.068;6.572;2023-05-27T03:59:17;18.40;;;4.38;;
54831;SDS011;40730;53.068;6.572;2023-05-27T04:01:45;15.68;;;3.60;;
54831;SDS011;40730;53.068;6.572;2023-05-27T04:04:12;18.02;;;5.80;;
54831;SDS011;40730;53.068;6.572;2023-05-27T04:06:38;15.43;;;5.00;;
54831;SDS011;40730;53.068;6.572;2023-05-27T04:09:04;12.93;;;4.88;;
54831;SDS011;40730;53.068;6.572;2023-05-27T04:11:30;26.23;;;6.35;;
54831;SDS011;40730;53.068;6.572;2023-05-27T04:13:56;16.70;;;4.18;;
54831;SDS011;40730;53.068;6.572;2023-05-27T04:16:21;18.88;;;4.07;;
54831;SDS011;40730;53.068;6.572;2023-05-27T04:18:48;19.85;;;4.15;;
54831;SDS011;40730;53.068;6.572;2023-05-27T04:21:15;27.95;;;4.85;;
54831;SDS011;40730;53.068;6.572;2023-05-27T04:23:41;19.25;;;4.80;;
54831;SDS011;40730;53.068;6.572;2023-05-27T04:26:07;15.50;;;3.95;;
54831;SDS011;40730;53.068;6.572;2023-05-27T04:28:33;13.73;;;4.72;;
54831;SDS011;40730;53.068;6.572;2023-05-27T04:31:00;11.00;;;3.45;;
54831;SDS011;40730;53.068;6.572;2023-05-27T04:33:26;15.98;;;3.60;;
54831;SDS011;40730;53.068;6.572;2023-05-27T04:35:51;11.60;;;4.13;;
54831;SDS011;40730;53.068;6.572;2023-05-27T04:38:18;21.50;;;4.35;;
54831;SDS011;40730;53.068;6.572;2023-05-27T04:40:46;19.55;;;5.03;;
54831;SDS011;40730;53.068;6.572;2023-05-27T04:43:17;17.90;;;3.72;;
54831;SDS011;40730;53.068;6.572;2023-05-27T04:45:44;15.63;;;4.38;;
54831;SDS011;40730;53.068;6.572;2023-05-27T04:48:10;20.30;;;4.85;;
54831;SDS011;40730;53.068;6.572;2023-05-27T04:50:36;23.30;;;4.82;;
54831;SDS011;40730;53.068;6.572;2023-05-27T04:53:02;18.90;;;4.07;;
54831;SDS011;40730;53.068;6.572;2023-05-27T04:55:27;19.23;;;4.20;;
54831;SDS011;40730;53.068;6.572;2023-05-27T04:57:54;16.92;;;5.40;;
54831;SDS011;40730;53.068;6.572;2023-05-27T05:00:21;28.05;;;5.15;;
54831;SDS011;40730;53.068;6.572;2023-05-27T05:03:07;17.23;;;3.97;;
54831;SDS011;40730;53.068;6.572;2023-05-27T05:05:33;14.20;;;5.03;;
54831;SDS011;40730;53.068;6.572;2023-05-27T05:07:59;16.50;;;4.68;;
54831;SDS011;40730;53.068;6.572;2023-05-27T05:10:25;16.58;;;3.97;;
54831;SDS011;40730;53.068;6.572;2023-05-27T05:12:51;26.52;;;4.75;;
54831;SDS011;40730;53.068;6.572;2023-05-27T05:15:17;26.30;;;4.65;;
54831;SDS011;40730;53.068;6.572;2023-05-27T05:17:42;25.52;;;6.13;;
54831;SDS011;40730;53.068;6.572;2023-05-27T05:20:08;22.27;;;4.15;;
54831;SDS011;40730;53.068;6.572;2023-05-27T05:22:35;18.33;;;3.55;;
54831;SDS011;40730;53.068;6.572;2023-05-27T05:25:00;22.85;;;4.68;;
54831;SDS011;40730;53.068;6.572;2023-05-27T05:27:26;23.10;;;4.03;;
54831;SDS011;40730;53.068;6.572;2023-05-27T05:29:52;21.88;;;4.30;;
54831;SDS011;40730;53.068;6.572;2023-05-27T05:32:19;22.35;;;4.15;;
54831;SDS011;40730;53.068;6.572;2023-05-27T05:34:44;23.50;;;6.25;;
54831;SDS011;40730;53.068;6.572;2023-05-27T05:37:10;14.13;;;3.95;;
54831;SDS011;40730;53.068;6.572;2023-05-27T05:39:36;16.40;;;3.50;;
54831;SDS011;40730;53.068;6.572;2023-05-27T05:42:02;19.75;;;3.90;;
54831;SDS011;40730;53.068;6.572;2023-05-27T05:44:28;18.45;;;3.63;;
54831;SDS011;40730;53.068;6.572;2023-05-27T05:46:54;26.17;;;3.85;;
54831;SDS011;40730;53.068;6.572;2023-05-27T05:49:20;26.40;;;4.05;;
54831;SDS011;40730;53.068;6.572;2023-05-27T05:51:45;27.63;;;4.95;;
54831;SDS011;40730;53.068;6.572;2023-05-27T05:54:11;18.30;;;3.85;;
54831;SDS011;40730;53.068;6.572;2023-05-27T05:56:37;14.13;;;4.35;;
54831;SDS011;40730;53.068;6.572;2023-05-27T05:59:02;18.08;;;3.47;;
54831;SDS011;40730;53.068;6.572;2023-05-27T06:01:28;17.92;;;3.58;;
54831;SDS011;40730;53.068;6.572;2023-05-27T06:03:54;15.55;;;3.22;;
54831;SDS011;40730;53.068;6.572;2023-05-27T06:06:20;19.17;;;3.28;;
54831;SDS011;40730;53.068;6.572;2023-05-27T06:08:45;17.98;;;3.60;;
54831;SDS011;40730;53.068;6.572;2023-05-27T06:11:11;22.17;;;3.70;;
54831;SDS011;40730;53.068;6.572;2023-05-27T06:13:37;21.52;;;3.38;;
54831;SDS011;40730;53.068;6.572;2023-05-27T06:16:03;19.38;;;4.50;;
54831;SDS011;40730;53.068;6.572;2023-05-27T06:18:29;16.02;;;3.78;;
54831;SDS011;40730;53.068;6.572;2023-05-27T06:20:55;17.02;;;3.10;;
54831;SDS011;40730;53.068;6.572;2023-05-27T06:23:20;21.52;;;4.10;;
54831;SDS011;40730;53.068;6.572;2023-05-27T06:25:46;22.85;;;3.45;;
54831;SDS011;40730;53.068;6.572;2023-05-27T06:28:11;16.40;;;2.90;;
54831;SDS011;40730;53.068;6.572;2023-05-27T06:30:37;21.80;;;2.80;;
54831;SDS011;40730;53.068;6.572;2023-05-27T06:33:03;15.43;;;2.80;;
54831;SDS011;40730;53.068;6.572;2023-05-27T06:35:28;16.00;;;2.35;;
54831;SDS011;40730;53.068;6.572;2023-05-27T06:37:54;16.67;;;3.50;;
54831;SDS011;40730;53.068;6.572;2023-05-27T06:40:19;25.55;;;3.08;;
54831;SDS011;40730;53.068;6.572;2023-05-27T06:42:45;13.55;;;2.83;;
54831;SDS011;40730;53.068;6.572;2023-05-27T06:45:11;15.45;;;3.03;;
54831;SDS011;40730;53.068;6.572;2023-05-27T06:47:36;10.93;;;1.85;;
54831;SDS011;40730;53.068;6.572;2023-05-27T06:50:03;14.52;;;3.10;;
54831;SDS011;40730;53.068;6.572;2023-05-27T06:52:29;19.92;;;3.33;;
54831;SDS011;40730;53.068;6.572;2023-05-27T06:54:55;17.63;;;3.17;;
54831;SDS011;40730;53.068;6.572;2023-05-27T06:57:20;24.77;;;4.07;;
54831;SDS011;40730;53.068;6.572;2023-05-27T06:59:46;27.05;;;3.38;;
54831;SDS011;40730;53.068;6.572;2023-05-27T07:02:11;10.73;;;2.13;;
54831;SDS011;40730;53.068;6.572;2023-05-27T07:04:37;17.77;;;3.08;;
54831;SDS011;40730;53.068;6.572;2023-05-27T07:07:03;10.52;;;2.22;;
54831;SDS011;40730;53.068;6.572;2023-05-27T07:09:28;13.23;;;2.60;;
54831;SDS011;40730;53.068;6.572;2023-05-27T07:11:54;19.27;;;3.50;;
54831;SDS011;40730;53.068;6.572;2023-05-27T07:14:19;16.35;;;3.03;;
54831;SDS011;40730;53.068;6.572;2023-05-27T07:16:45;15.52;;;2.90;;
54831;SDS011;40730;53.068;6.572;2023-05-27T07:19:11;11.73;;;2.33;;
54831;SDS011;40730;53.068;6.572;2023-05-27T07:21:36;15.75;;;3.47;;
54831;SDS011;40730;53.068;6.572;2023-05-27T07:24:02;14.18;;;2.25;;
54831;SDS011;40730;53.068;6.572;2023-05-27T07:26:31;16.42;;;2.65;;
54831;SDS011;40730;53.068;6.572;2023-05-27T07:28:58;18.10;;;2.95;;
54831;SDS011;40730;53.068;6.572;2023-05-27T07:31:25;12.25;;;2.13;;
54831;SDS011;40730;53.068;6.572;2023-05-27T07:33:52;13.65;;;2.47;;
54831;SDS011;40730;53.068;6.572;2023-05-27T07:36:18;12.20;;;2.60;;
54831;SDS011;40730;53.068;6.572;2023-05-27T07:38:43;13.35;;;3.13;;
54831;SDS011;40730;53.068;6.572;2023-05-27T07:41:09;12.18;;;2.45;;
54831;SDS011;40730;53.068;6.572;2023-05-27T07:43:35;11.63;;;2.35;;
54831;SDS011;40730;53.068;6.572;2023-05-27T07:46:00;13.57;;;2.53;;
54831;SDS011;40730;53.068;6.572;2023-05-27T07:48:27;15.63;;;2.50;;
54831;SDS011;40730;53.068;6.572;2023-05-27T07:50:53;12.00;;;2.28;;
54831;SDS011;40730;53.068;6.572;2023-05-27T07:53:19;20.60;;;2.53;;
54831;SDS011;40730;53.068;6.572;2023-05-27T07:55:44;11.85;;;1.95;;
54831;SDS011;40730;53.068;6.572;2023-05-27T07:58:10;15.32;;;2.92;;
54831;SDS011;40730;53.068;6.572;2023-05-27T08:00:36;14.93;;;2.15;;
54831;SDS011;40730;53.068;6.572;2023-05-27T08:03:01;15.00;;;2.53;;
54831;SDS011;40730;53.068;6.572;2023-05-27T08:05:27;14.95;;;2.00;;
54831;SDS011;40730;53.068;6.572;2023-05-27T08:07:52;15.63;;;2.63;;
54831;SDS011;40730;53.068;6.572;2023-05-27T08:10:18;18.17;;;3.47;;
54831;SDS011;40730;53.068;6.572;2023-05-27T08:12:43;12.82;;;2.10;;
54831;SDS011;40730;53.068;6.572;2023-05-27T08:15:09;13.90;;;2.47;;
54831;SDS011;40730;53.068;6.572;2023-05-27T08:17:35;16.33;;;2.05;;
54831;SDS011;40730;53.068;6.572;2023-05-27T08:20:00;16.00;;;2.47;;
54831;SDS011;40730;53.068;6.572;2023-05-27T08:22:26;16.38;;;2.85;;
54831;SDS011;40730;53.068;6.572;2023-05-27T08:24:52;13.27;;;2.15;;
54831;SDS011;40730;53.068;6.572;2023-05-27T08:27:19;15.65;;;2.55;;
54831;SDS011;40730;53.068;6.572;2023-05-27T08:29:46;19.33;;;3.10;;
54831;SDS011;40730;53.068;6.572;2023-05-27T08:32:11;20.85;;;3.20;;
54831;SDS011;40730;53.068;6.572;2023-05-27T08:34:37;12.20;;;2.30;;
54831;SDS011;40730;53.068;6.572;2023-05-27T08:37:03;16.02;;;2.30;;
54831;SDS011;40730;53.068;6.572;2023-05-27T08:39:30;17.20;;;2.47;;
54831;SDS011;40730;53.068;6.572;2023-05-27T08:41:56;13.93;;;2.35;;
54831;SDS011;40730;53.068;6.572;2023-05-27T08:44:22;15.23;;;2.30;;
54831;SDS011;40730;53.068;6.572;2023-05-27T08:46:48;13.98;;;2.13;;
54831;SDS011;40730;53.068;6.572;2023-05-27T08:49:15;20.30;;;2.72;;
54831;SDS011;40730;53.068;6.572;2023-05-27T08:51:41;10.57;;;2.58;;
54831;SDS011;40730;53.068;6.572;2023-05-27T08:54:08;13.50;;;2.22;;
54831;SDS011;40730;53.068;6.572;2023-05-27T08:56:34;14.82;;;2.75;;
54831;SDS011;40730;53.068;6.572;2023-05-27T08:59:00;13.07;;;2.20;;
54831;SDS011;40730;53.068;6.572;2023-05-27T09:01:26;16.13;;;2.40;;
54831;SDS011;40730;53.068;6.572;2023-05-27T09:03:54;16.15;;;2.30;;
54831;SDS011;40730;53.068;6.572;2023-05-27T09:06:20;11.55;;;1.92;;
54831;SDS011;40730;53.068;6.572;2023-05-27T09:08:46;10.63;;;3.03;;
54831;SDS011;40730;53.068;6.572;2023-05-27T09:11:21;12.85;;;2.40;;
54831;SDS011;40730;53.068;6.572;2023-05-27T09:13:53;13.60;;;2.83;;
54831;SDS011;40730;53.068;6.572;2023-05-27T09:16:20;11.98;;;2.15;;
54831;SDS011;40730;53.068;6.572;2023-05-27T09:18:46;11.52;;;2.38;;
54831;SDS011;40730;53.068;6.572;2023-05-27T09:21:13;11.50;;;2.47;;
54831;SDS011;40730;53.068;6.572;2023-05-27T09:23:39;11.65;;;2.45;;
54831;SDS011;40730;53.068;6.572;2023-05-27T09:26:08;14.70;;;3.08;;
54831;SDS011;40730;53.068;6.572;2023-05-27T09:28:35;15.10;;;2.80;;
54831;SDS011;40730;53.068;6.572;2023-05-27T09:31:02;16.10;;;2.97;;
54831;SDS011;40730;53.068;6.572;2023-05-27T09:33:31;14.95;;;2.80;;
54831;SDS011;40730;53.068;6.572;2023-05-27T09:36:04;16.13;;;2.85;;
54831;SDS011;40730;53.068;6.572;2023-05-27T09:38:31;10.05;;;1.98;;
54831;SDS011;40730;53.068;6.572;2023-05-27T09:40:58;15.05;;;2.63;;
54831;SDS011;40730;53.068;6.572;2023-05-27T09:43:24;12.63;;;2.90;;
54831;SDS011;40730;53.068;6.572;2023-05-27T09:45:51;13.02;;;3.20;;
54831;SDS011;40730;53.068;6.572;2023-05-27T09:48:38;12.98;;;2.75;;
54831;SDS011;40730;53.068;6.572;2023-05-27T09:51:03;9.50;;;1.83;;
54831;SDS011;40730;53.068;6.572;2023-05-27T09:53:30;10.48;;;2.45;;
54831;SDS011;40730;53.068;6.572;2023-05-27T09:55:58;10.55;;;2.45;;
54831;SDS011;40730;53.068;6.572;2023-05-27T09:58:24;11.65;;;2.22;;
54831;SDS011;40730;53.068;6.572;2023-05-27T10:00:50;16.95;;;2.63;;
54831;SDS011;40730;53.068;6.572;2023-05-27T10:03:17;9.82;;;2.28;;
54831;SDS011;40730;53.068;6.572;2023-05-27T10:05:45;13.85;;;2.03;;
54831;SDS011;40730;53.068;6.572;2023-05-27T10:08:13;12.80;;;2.55;;
54831;SDS011;40730;53.068;6.572;2023-05-27T10:10:39;10.00;;;2.30;;
54831;SDS011;40730;53.068;6.572;2023-05-27T10:13:05;12.07;;;2.58;;
54831;SDS011;40730;53.068;6.572;2023-05-27T10:15:32;15.27;;;3.25;;
54831;SDS011;40730;53.068;6.572;2023-05-27T10:18:04;10.85;;;2.78;;
54831;SDS011;40730;53.068;6.572;2023-05-27T10:20:32;9.77;;;2.55;;
54831;SDS011;40730;53.068;6.572;2023-05-27T10:23:14;10.93;;;2.17;;
54831;SDS011;40730;53.068;6.572;2023-05-27T10:25:56;13.02;;;2.85;;
54831;SDS011;40730;53.068;6.572;2023-05-27T10:28:33;12.32;;;2.20;;
54831;SDS011;40730;53.068;6.572;2023-05-27T10:31:05;16.55;;;2.88;;
54831;SDS011;40730;53.068;6.572;2023-05-27T10:33:36;16.67;;;2.95;;
54831;SDS011;40730;53.068;6.572;2023-05-27T10:36:08;12.52;;;3.03;;
54831;SDS011;40730;53.068;6.572;2023-05-27T10:38:40;13.93;;;3.28;;
54831;SDS011;40730;53.068;6.572;2023-05-27T10:41:07;13.15;;;2.80;;
54831;SDS011;40730;53.068;6.572;2023-05-27T10:43:34;11.45;;;2.72;;
54831;SDS011;40730;53.068;6.572;2023-05-27T10:46:04;12.10;;;2.28;;
54831;SDS011;40730;53.068;6.572;2023-05-27T10:48:33;14.07;;;2.78;;
54831;SDS011;40730;53.068;6.572;2023-05-27T10:50:59;12.10;;;2.83;;
54831;SDS011;40730;53.068;6.572;2023-05-27T10:53:25;11.15;;;2.67;;
54831;SDS011;40730;53.068;6.572;2023-05-27T10:55:52;12.82;;;3.13;;
54831;SDS011;40730;53.068;6.572;2023-05-27T10:58:19;14.20;;;2.90;;
54831;SDS011;40730;53.068;6.572;2023-05-27T11:00:47;9.77;;;2.40;;
54831;SDS011;40730;53.068;6.572;2023-05-27T11:03:22;17.80;;;3.45;;
54831;SDS011;40730;53.068;6.572;2023-05-27T11:08:28;9.70;;;2.45;;
54831;SDS011;40730;53.068;6.572;2023-05-27T11:11:10;12.68;;;3.47;;
54831;SDS011;40730;53.068;6.572;2023-05-27T11:13:43;11.80;;;3.03;;
54831;SDS011;40730;53.068;6.572;2023-05-27T11:16:10;13.30;;;3.40;;
54831;SDS011;40730;53.068;6.572;2023-05-27T11:18:38;9.80;;;2.40;;
54831;SDS011;40730;53.068;6.572;2023-05-27T11:21:07;13.52;;;3.15;;
54831;SDS011;40730;53.068;6.572;2023-05-27T11:23:34;9.38;;;2.38;;
54831;SDS011;40730;53.068;6.572;2023-05-27T11:26:18;10.88;;;2.80;;
54831;SDS011;40730;53.068;6.572;2023-05-27T11:28:47;13.82;;;2.97;;
54831;SDS011;40730;53.068;6.572;2023-05-27T11:31:14;11.05;;;2.88;;
54831;SDS011;40730;53.068;6.572;2023-05-27T11:33:40;13.32;;;2.97;;
54831;SDS011;40730;53.068;6.572;2023-05-27T11:36:10;11.02;;;2.80;;
54831;SDS011;40730;53.068;6.572;2023-05-27T11:41:16;13.27;;;3.25;;
54831;SDS011;40730;53.068;6.572;2023-05-27T11:43:46;11.13;;;3.13;;
54831;SDS011;40730;53.068;6.572;2023-05-27T11:46:35;10.98;;;3.05;;
54831;SDS011;40730;53.068;6.572;2023-05-27T11:49:05;10.20;;;2.53;;
54831;SDS011;40730;53.068;6.572;2023-05-27T11:51:36;8.60;;;3.08;;
54831;SDS011;40730;53.068;6.572;2023-05-27T11:54:03;9.70;;;3.30;;
54831;SDS011;40730;53.068;6.572;2023-05-27T11:56:29;11.90;;;2.97;;
54831;SDS011;40730;53.068;6.572;2023-05-27T11:58:55;12.90;;;2.67;;
54831;SDS011;40730;53.068;6.572;2023-05-27T12:01:21;10.88;;;2.78;;
54831;SDS011;40730;53.068;6.572;2023-05-27T12:03:47;14.65;;;3.05;;
54831;SDS011;40730;53.068;6.572;2023-05-27T12:06:13;12.27;;;2.90;;
54831;SDS011;40730;53.068;6.572;2023-05-27T12:08:40;11.55;;;3.22;;
54831;SDS011;40730;53.068;6.572;2023-05-27T12:11:06;13.20;;;3.28;;
54831;SDS011;40730;53.068;6.572;2023-05-27T12:13:32;10.43;;;3.28;;
54831;SDS011;40730;53.068;6.572;2023-05-27T12:15:58;13.35;;;3.42;;
54831;SDS011;40730;53.068;6.572;2023-05-27T12:18:24;15.15;;;3.38;;
54831;SDS011;40730;53.068;6.572;2023-05-27T12:20:50;12.38;;;3.30;;
54831;SDS011;40730;53.068;6.572;2023-05-27T12:23:16;9.60;;;2.90;;
54831;SDS011;40730;53.068;6.572;2023-05-27T12:25:41;8.32;;;2.33;;
54831;SDS011;40730;53.068;6.572;2023-05-27T12:28:07;13.50;;;3.25;;
54831;SDS011;40730;53.068;6.572;2023-05-27T12:30:33;7.45;;;2.65;;
54831;SDS011;40730;53.068;6.572;2023-05-27T12:33:01;12.70;;;3.22;;
54831;SDS011;40730;53.068;6.572;2023-05-27T12:35:27;10.30;;;3.47;;
54831;SDS011;40730;53.068;6.572;2023-05-27T12:37:52;10.73;;;3.42;;
54831;SDS011;40730;53.068;6.572;2023-05-27T12:40:18;14.07;;;3.55;;
54831;SDS011;40730;53.068;6.572;2023-05-27T12:42:43;7.28;;;2.63;;
54831;SDS011;40730;53.068;6.572;2023-05-27T12:45:09;11.38;;;3.08;;
54831;SDS011;40730;53.068;6.572;2023-05-27T12:47:36;15.88;;;3.25;;
54831;SDS011;40730;53.068;6.572;2023-05-27T12:50:02;17.30;;;3.30;;
54831;SDS011;40730;53.068;6.572;2023-05-27T12:52:29;9.77;;;3.38;;
54831;SDS011;40730;53.068;6.572;2023-05-27T12:54:55;10.65;;;3.08;;
54831;SDS011;40730;53.068;6.572;2023-05-27T12:57:20;13.52;;;2.72;;
54831;SDS011;40730;53.068;6.572;2023-05-27T12:59:46;11.65;;;3.58;;
54831;SDS011;40730;53.068;6.572;2023-05-27T13:02:11;9.27;;;3.05;;
54831;SDS011;40730;53.068;6.572;2023-05-27T13:04:37;12.80;;;3.72;;
54831;SDS011;40730;53.068;6.572;2023-05-27T13:07:04;15.95;;;3.78;;
54831;SDS011;40730;53.068;6.572;2023-05-27T13:09:30;12.82;;;3.55;;
54831;SDS011;40730;53.068;6.572;2023-05-27T13:11:55;11.77;;;3.10;;
54831;SDS011;40730;53.068;6.572;2023-05-27T13:14:22;10.75;;;3.00;;
54831;SDS011;40730;53.068;6.572;2023-05-27T13:16:48;11.95;;;3.03;;
54831;SDS011;40730;53.068;6.572;2023-05-27T13:19:14;10.02;;;2.97;;
54831;SDS011;40730;53.068;6.572;2023-05-27T13:21:39;10.45;;;3.25;;
54831;SDS011;40730;53.068;6.572;2023-05-27T13:24:05;10.18;;;2.85;;
54831;SDS011;40730;53.068;6.572;2023-05-27T13:26:31;8.88;;;2.95;;
54831;SDS011;40730;53.068;6.572;2023-05-27T13:28:58;13.95;;;3.67;;
54831;SDS011;40730;53.068;6.572;2023-05-27T13:31:24;12.13;;;3.60;;
54831;SDS011;40730;53.068;6.572;2023-05-27T13:33:49;16.65;;;3.88;;
54831;SDS011;40730;53.068;6.572;2023-05-27T13:36:15;11.43;;;2.72;;
54831;SDS011;40730;53.068;6.572;2023-05-27T13:38:41;12.90;;;3.45;;
54831;SDS011;40730;53.068;6.572;2023-05-27T13:41:07;9.85;;;2.40;;
54831;SDS011;40730;53.068;6.572;2023-05-27T13:43:32;12.88;;;3.42;;
54831;SDS011;40730;53.068;6.572;2023-05-27T13:45:58;12.93;;;3.60;;
54831;SDS011;40730;53.068;6.572;2023-05-27T13:48:23;11.00;;;2.88;;
54831;SDS011;40730;53.068;6.572;2023-05-27T13:50:49;10.95;;;2.72;;
54831;SDS011;40730;53.068;6.572;2023-05-27T13:53:15;10.02;;;3.13;;
54831;SDS011;40730;53.068;6.572;2023-05-27T13:55:40;14.75;;;3.85;;
54831;SDS011;40730;53.068;6.572;2023-05-27T13:58:24;9.45;;;2.33;;
54831;SDS011;40730;53.068;6.572;2023-05-27T14:00:50;9.40;;;2.75;;
54831;SDS011;40730;53.068;6.572;2023-05-27T14:03:15;10.82;;;2.80;;
54831;SDS011;40730;53.068;6.572;2023-05-27T14:05:41;13.43;;;3.08;;
54831;SDS011;40730;53.068;6.572;2023-05-27T14:08:06;10.32;;;3.50;;
54831;SDS011;40730;53.068;6.572;2023-05-27T14:10:33;15.52;;;2.90;;
54831;SDS011;40730;53.068;6.572;2023-05-27T14:12:59;9.85;;;2.72;;
54831;SDS011;40730;53.068;6.572;2023-05-27T14:15:26;10.75;;;3.03;;
54831;SDS011;40730;53.068;6.572;2023-05-27T14:17:53;9.00;;;3.40;;
54831;SDS011;40730;53.068;6.572;2023-05-27T14:20:19;11.35;;;2.95;;
54831;SDS011;40730;53.068;6.572;2023-05-27T14:22:45;13.00;;;3.08;;
54831;SDS011;40730;53.068;6.572;2023-05-27T14:25:11;10.82;;;2.67;;
54831;SDS011;40730;53.068;6.572;2023-05-27T14:27:36;14.73;;;2.60;;
54831;SDS011;40730;53.068;6.572;2023-05-27T14:30:02;9.02;;;2.65;;
54831;SDS011;40730;53.068;6.572;2023-05-27T14:32:28;14.27;;;2.42;;
54831;SDS011;40730;53.068;6.572;2023-05-27T14:34:54;11.38;;;2.72;;
54831;SDS011;40730;53.068;6.572;2023-05-27T14:37:21;11.38;;;3.08;;
54831;SDS011;40730;53.068;6.572;2023-05-27T14:39:47;9.40;;;3.40;;
54831;SDS011;40730;53.068;6.572;2023-05-27T14:42:12;10.20;;;2.75;;
54831;SDS011;40730;53.068;6.572;2023-05-27T14:44:38;11.95;;;3.00;;